sensor_id;sensor_type;location;lat;lon;timestamp;P1;durP1;ratioP1;P2;durP2;ratioP2
21297;SDS011;10808;48.010;11.326;2023-12-22T00:00:08;1.40;;;0.70;;
21297;SDS011;10808;48.010;11.326;2023-12-22T00:02:35;2.47;;;0.70;;
21297;SDS011;10808;48.010;11.326;2023-12-22T00:05:01;1.65;;;0.77;;
21297;SDS011;10808;48.010;11.326;2023-12-22T00:07:27;1.48;;;0.70;;
21297;SDS011;10808;48.010;11.326;2023-12-22T00:09:53;2.65;;;0.70;;
21297;SDS011;10808;48.010;11.326;2023-12-22T00:12:19;2.10;;;0.60;;
21297;SDS011;10808;48.010;11.326;2023-12-22T00:14:45;0.77;;;0.60;;
21297;SDS011;10808;48.010;11.326;2023-12-22T00:17:11;1.30;;;0.70;;
21297;SDS011;10808;48.010;11.326;2023-12-22T00:19:37;1.73;;;0.70;;
21297;SDS011;10808;48.010;11.326;2023-12-22T00:22:03;3.55;;;0.90;;
21297;SDS011;10808;48.010;11.326;2023-12-22T00:24:30;2.47;;;1.00;;
21297;SDS011;10808;48.010;11.326;2023-12-22T00:26:56;3.00;;;0.80;;
21297;SDS011;10808;48.010;11.326;2023-12-22T00:29:22;4.05;;;1.30;;
21297;SDS011;10808;48.010;11.326;2023-12-22T00:31:48;1.90;;;0.80;;
21297;SDS011;10808;48.010;11.326;2023-12-22T00:34:14;2.03;;;0.83;;
21297;SDS011;10808;48.010;11.326;2023-12-22T00:36:40;2.80;;;0.80;;
21297;SDS011;10808;48.010;11.326;2023-12-22T00:39:06;2.65;;;0.75;;
21297;SDS011;10808;48.010;11.326;2023-12-22T00:41:33;2.58;;;0.80;;
21297;SDS011;10808;48.010;11.326;2023-12-22T00:43:59;2.05;;;0.70;;
21297;SDS011;10808;48.010;11.326;2023-12-22T00:46:25;1.13;;;0.70;;
21297;SDS011;10808;48.010;11.326;2023-12-22T00:48:51;0.88;;;0.40;;
21297;SDS011;10808;48.010;11.326;2023-12-22T00:51:17;2.22;;;0.55;;
21297;SDS011;10808;48.010;11.326;2023-12-22T00:53:43;1.10;;;0.50;;
21297;SDS011;10808;48.010;11.326;2023-12-22T00:56:09;0.70;;;0.60;;
21297;SDS011;10808;48.010;11.326;2023-12-22T00:58:38;1.27;;;0.60;;
21297;SDS011;10808;48.010;11.326;2023-12-22T01:01:05;1.30;;;0.53;;
21297;SDS011;10808;48.010;11.326;2023-12-22T01:03:31;1.45;;;0.60;;
21297;SDS011;10808;48.010;11.326;2023-12-22T01:05:57;0.77;;;0.50;;
21297;SDS011;10808;48.010;11.326;2023-12-22T01:08:23;1.33;;;0.63;;
21297;SDS011;10808;48.010;11.326;2023-12-22T01:10:49;0.93;;;0.60;;
21297;SDS011;10808;48.010;11.326;2023-12-22T01:13:15;1.75;;;0.68;;
21297;SDS011;10808;48.010;11.326;2023-12-22T01:15:41;0.90;;;0.60;;
21297;SDS011;10808;48.010;11.326;2023-12-22T01:18:09;1.20;;;0.45;;
21297;SDS011;10808;48.010;11.326;2023-12-22T01:20:36;1.40;;;0.50;;
21297;SDS011;10808;48.010;11.326;2023-12-22T01:23:02;1.10;;;0.55;;
21297;SDS011;10808;48.010;11.326;2023-12-22T01:25:28;1.80;;;0.50;;
21297;SDS011;10808;48.010;11.326;2023-12-22T01:27:54;1.30;;;0.63;;
21297;SDS011;10808;48.010;11.326;2023-12-22T01:30:20;1.63;;;0.70;;
21297;SDS011;10808;48.010;11.326;2023-12-22T01:32:46;2.08;;;0.90;;
21297;SDS011;10808;48.010;11.326;2023-12-22T01:35:12;1.38;;;0.60;;
21297;SDS011;10808;48.010;11.326;2023-12-22T01:37:38;1.07;;;0.70;;
21297;SDS011;10808;48.010;11.326;2023-12-22T01:40:04;1.00;;;0.60;;
21297;SDS011;10808;48.010;11.326;2023-12-22T01:42:31;1.90;;;0.50;;
21297;SDS011;10808;48.010;11.326;2023-12-22T01:44:57;0.82;;;0.50;;
21297;SDS011;10808;48.010;11.326;2023-12-22T01:47:23;0.60;;;0.50;;
21297;SDS011;10808;48.010;11.326;2023-12-22T01:49:50;1.52;;;0.60;;
21297;SDS011;10808;48.010;11.326;2023-12-22T01:52:16;1.25;;;0.60;;
21297;SDS011;10808;48.010;11.326;2023-12-22T01:54:43;1.58;;;0.70;;
21297;SDS011;10808;48.010;11.326;2023-12-22T01:57:09;0.80;;;0.50;;
21297;SDS011;10808;48.010;11.326;2023-12-22T01:59:39;0.98;;;0.50;;
21297;SDS011;10808;48.010;11.326;2023-12-22T02:02:05;1.35;;;0.70;;
21297;SDS011;10808;48.010;11.326;2023-12-22T02:04:31;1.20;;;0.80;;
21297;SDS011;10808;48.010;11.326;2023-12-22T02:06:59;0.95;;;0.80;;
21297;SDS011;10808;48.010;11.326;2023-12-22T02:09:27;1.50;;;0.70;;
21297;SDS011;10808;48.010;11.326;2023-12-22T02:11:53;1.30;;;0.70;;
21297;SDS011;10808;48.010;11.326;2023-12-22T02:14:19;0.97;;;0.70;;
21297;SDS011;10808;48.010;11.326;2023-12-22T02:16:47;2.00;;;0.80;;
21297;SDS011;10808;48.010;11.326;2023-12-22T02:19:42;1.10;;;0.80;;
21297;SDS011;10808;48.010;11.326;2023-12-22T02:22:09;1.35;;;0.90;;
21297;SDS011;10808;48.010;11.326;2023-12-22T02:24:37;1.02;;;0.88;;
21297;SDS011;10808;48.010;11.326;2023-12-22T02:27:13;2.53;;;0.90;;
21297;SDS011;10808;48.010;11.326;2023-12-22T02:30:07;0.60;;;0.50;;
21297;SDS011;10808;48.010;11.326;2023-12-22T02:32:34;0.32;;;0.32;;
21297;SDS011;10808;48.010;11.326;2023-12-22T02:35:05;1.05;;;0.50;;
21297;SDS011;10808;48.010;11.326;2023-12-22T02:37:36;0.30;;;0.30;;
21297;SDS011;10808;48.010;11.326;2023-12-22T02:40:05;0.30;;;0.30;;
21297;SDS011;10808;48.010;11.326;2023-12-22T02:42:34;0.40;;;0.40;;
21297;SDS011;10808;48.010;11.326;2023-12-22T02:45:01;0.32;;;0.32;;
21297;SDS011;10808;48.010;11.326;2023-12-22T02:47:28;0.40;;;0.40;;
21297;SDS011;10808;48.010;11.326;2023-12-22T02:49:54;0.30;;;0.30;;
21297;SDS011;10808;48.010;11.326;2023-12-22T02:52:20;0.30;;;0.30;;
21297;SDS011;10808;48.010;11.326;2023-12-22T02:54:46;0.30;;;0.30;;
21297;SDS011;10808;48.010;11.326;2023-12-22T02:57:12;0.50;;;0.43;;
21297;SDS011;10808;48.010;11.326;2023-12-22T02:59:39;0.40;;;0.40;;
21297;SDS011;10808;48.010;11.326;2023-12-22T03:02:05;0.50;;;0.50;;
21297;SDS011;10808;48.010;11.326;2023-12-22T03:04:31;1.10;;;0.70;;
21297;SDS011;10808;48.010;11.326;2023-12-22T03:06:57;0.57;;;0.57;;
21297;SDS011;10808;48.010;11.326;2023-12-22T03:09:23;0.60;;;0.60;;
21297;SDS011;10808;48.010;11.326;2023-12-22T03:11:49;1.23;;;0.70;;
21297;SDS011;10808;48.010;11.326;2023-12-22T03:14:17;0.70;;;0.70;;
21297;SDS011;10808;48.010;11.326;2023-12-22T03:16:43;2.10;;;0.90;;
21297;SDS011;10808;48.010;11.326;2023-12-22T03:19:09;0.85;;;0.80;;
21297;SDS011;10808;48.010;11.326;2023-12-22T03:21:35;1.70;;;1.00;;
21297;SDS011;10808;48.010;11.326;2023-12-22T03:24:01;1.35;;;0.90;;
21297;SDS011;10808;48.010;11.326;2023-12-22T03:26:27;0.85;;;0.80;;
21297;SDS011;10808;48.010;11.326;2023-12-22T03:28:53;3.10;;;0.90;;
21297;SDS011;10808;48.010;11.326;2023-12-22T03:31:20;4.05;;;0.90;;
21297;SDS011;10808;48.010;11.326;2023-12-22T03:33:46;3.60;;;1.00;;
21297;SDS011;10808;48.010;11.326;2023-12-22T03:36:12;1.52;;;0.60;;
21297;SDS011;10808;48.010;11.326;2023-12-22T03:38:38;2.40;;;0.65;;
21297;SDS011;10808;48.010;11.326;2023-12-22T03:41:04;2.00;;;0.70;;
21297;SDS011;10808;48.010;11.326;2023-12-22T03:43:30;1.48;;;0.55;;
21297;SDS011;10808;48.010;11.326;2023-12-22T03:45:58;3.55;;;0.70;;
21297;SDS011;10808;48.010;11.326;2023-12-22T03:48:25;1.20;;;0.60;;
21297;SDS011;10808;48.010;11.326;2023-12-22T03:50:51;2.40;;;0.50;;
21297;SDS011;10808;48.010;11.326;2023-12-22T03:53:17;3.50;;;0.60;;
21297;SDS011;10808;48.010;11.326;2023-12-22T03:55:43;1.88;;;0.50;;
21297;SDS011;10808;48.010;11.326;2023-12-22T03:58:09;2.20;;;0.60;;
21297;SDS011;10808;48.010;11.326;2023-12-22T04:00:35;2.40;;;0.60;;
21297;SDS011;10808;48.010;11.326;2023-12-22T04:03:01;2.27;;;0.60;;
21297;SDS011;10808;48.010;11.326;2023-12-22T04:05:28;1.73;;;0.65;;
21297;SDS011;10808;48.010;11.326;2023-12-22T04:07:54;1.65;;;0.55;;
21297;SDS011;10808;48.010;11.326;2023-12-22T04:10:20;3.50;;;0.70;;
21297;SDS011;10808;48.010;11.326;2023-12-22T04:12:46;2.95;;;0.60;;
21297;SDS011;10808;48.010;11.326;2023-12-22T04:15:12;1.35;;;0.70;;
21297;SDS011;10808;48.010;11.326;2023-12-22T04:17:38;1.50;;;0.60;;
21297;SDS011;10808;48.010;11.326;2023-12-22T04:20:07;2.28;;;0.60;;
21297;SDS011;10808;48.010;11.326;2023-12-22T04:22:33;3.30;;;1.20;;
21297;SDS011;10808;48.010;11.326;2023-12-22T04:24:59;3.85;;;1.10;;
21297;SDS011;10808;48.010;11.326;2023-12-22T04:27:25;2.70;;;0.70;;
21297;SDS011;10808;48.010;11.326;2023-12-22T04:29:51;2.30;;;0.70;;
21297;SDS011;10808;48.010;11.326;2023-12-22T04:32:18;2.38;;;0.82;;
21297;SDS011;10808;48.010;11.326;2023-12-22T04:34:44;4.78;;;0.90;;
21297;SDS011;10808;48.010;11.326;2023-12-22T04:37:10;1.95;;;0.60;;
21297;SDS011;10808;48.010;11.326;2023-12-22T04:39:36;2.90;;;0.80;;
21297;SDS011;10808;48.010;11.326;2023-12-22T04:42:02;1.20;;;0.80;;
21297;SDS011;10808;48.010;11.326;2023-12-22T04:44:28;1.20;;;0.60;;
21297;SDS011;10808;48.010;11.326;2023-12-22T04:46:54;2.40;;;1.10;;
21297;SDS011;10808;48.010;11.326;2023-12-22T04:49:20;3.60;;;0.90;;
21297;SDS011;10808;48.010;11.326;2023-12-22T04:51:46;3.00;;;1.10;;
21297;SDS011;10808;48.010;11.326;2023-12-22T04:54:12;2.90;;;0.80;;
21297;SDS011;10808;48.010;11.326;2023-12-22T04:56:38;2.90;;;0.93;;
21297;SDS011;10808;48.010;11.326;2023-12-22T04:59:04;1.35;;;0.90;;
21297;SDS011;10808;48.010;11.326;2023-12-22T05:01:30;2.47;;;0.90;;
21297;SDS011;10808;48.010;11.326;2023-12-22T05:03:56;2.60;;;0.85;;
21297;SDS011;10808;48.010;11.326;2023-12-22T05:06:22;1.47;;;0.63;;
21297;SDS011;10808;48.010;11.326;2023-12-22T05:08:48;2.33;;;0.80;;
21297;SDS011;10808;48.010;11.326;2023-12-22T05:11:14;2.72;;;0.90;;
21297;SDS011;10808;48.010;11.326;2023-12-22T05:13:40;3.92;;;0.80;;
21297;SDS011;10808;48.010;11.326;2023-12-22T05:16:08;2.33;;;0.87;;
21297;SDS011;10808;48.010;11.326;2023-12-22T05:18:34;3.40;;;1.20;;
21297;SDS011;10808;48.010;11.326;2023-12-22T05:21:00;2.10;;;0.98;;
21297;SDS011;10808;48.010;11.326;2023-12-22T05:23:26;3.10;;;1.05;;
21297;SDS011;10808;48.010;11.326;2023-12-22T05:25:52;1.83;;;0.90;;
21297;SDS011;10808;48.010;11.326;2023-12-22T05:28:18;3.22;;;0.70;;
21297;SDS011;10808;48.010;11.326;2023-12-22T05:30:44;2.20;;;0.60;;
21297;SDS011;10808;48.010;11.326;2023-12-22T05:33:10;2.55;;;0.80;;
21297;SDS011;10808;48.010;11.326;2023-12-22T05:35:36;1.10;;;0.70;;
21297;SDS011;10808;48.010;11.326;2023-12-22T05:38:02;1.40;;;0.80;;
21297;SDS011;10808;48.010;11.326;2023-12-22T05:40:28;3.38;;;0.80;;
21297;SDS011;10808;48.010;11.326;2023-12-22T05:42:56;3.42;;;0.93;;
21297;SDS011;10808;48.010;11.326;2023-12-22T05:45:22;3.10;;;0.90;;
21297;SDS011;10808;48.010;11.326;2023-12-22T05:47:50;3.22;;;1.00;;
21297;SDS011;10808;48.010;11.326;2023-12-22T05:50:16;2.42;;;0.80;;
21297;SDS011;10808;48.010;11.326;2023-12-22T05:52:42;3.87;;;1.00;;
21297;SDS011;10808;48.010;11.326;2023-12-22T05:55:11;3.93;;;0.93;;
21297;SDS011;10808;48.010;11.326;2023-12-22T05:57:37;1.98;;;0.80;;
21297;SDS011;10808;48.010;11.326;2023-12-22T06:00:04;3.53;;;0.88;;
21297;SDS011;10808;48.010;11.326;2023-12-22T06:02:33;2.83;;;1.00;;
21297;SDS011;10808;48.010;11.326;2023-12-22T06:04:59;3.97;;;1.13;;
21297;SDS011;10808;48.010;11.326;2023-12-22T06:07:26;3.67;;;1.10;;
21297;SDS011;10808;48.010;11.326;2023-12-22T06:09:52;2.63;;;1.08;;
21297;SDS011;10808;48.010;11.326;2023-12-22T06:12:18;3.28;;;0.90;;
21297;SDS011;10808;48.010;11.326;2023-12-22T06:14:44;1.98;;;0.90;;
21297;SDS011;10808;48.010;11.326;2023-12-22T06:17:10;2.58;;;1.08;;
21297;SDS011;10808;48.010;11.326;2023-12-22T06:19:36;3.80;;;0.90;;
21297;SDS011;10808;48.010;11.326;2023-12-22T06:22:03;3.40;;;0.80;;
21297;SDS011;10808;48.010;11.326;2023-12-22T06:24:29;3.38;;;1.00;;
21297;SDS011;10808;48.010;11.326;2023-12-22T06:26:55;2.03;;;0.80;;
21297;SDS011;10808;48.010;11.326;2023-12-22T06:29:22;1.42;;;0.80;;
21297;SDS011;10808;48.010;11.326;2023-12-22T06:31:48;5.00;;;1.33;;
21297;SDS011;10808;48.010;11.326;2023-12-22T06:34:16;2.70;;;1.00;;
21297;SDS011;10808;48.010;11.326;2023-12-22T06:36:42;3.30;;;1.15;;
21297;SDS011;10808;48.010;11.326;2023-12-22T06:39:08;2.80;;;0.90;;
21297;SDS011;10808;48.010;11.326;2023-12-22T06:41:34;3.03;;;0.90;;
21297;SDS011;10808;48.010;11.326;2023-12-22T06:44:00;2.28;;;0.93;;
21297;SDS011;10808;48.010;11.326;2023-12-22T06:46:27;5.15;;;1.90;;
21297;SDS011;10808;48.010;11.326;2023-12-22T06:48:57;2.88;;;1.35;;
21297;SDS011;10808;48.010;11.326;2023-12-22T06:53:54;3.58;;;1.60;;
21297;SDS011;10808;48.010;11.326;2023-12-22T06:56:23;2.57;;;1.30;;
21297;SDS011;10808;48.010;11.326;2023-12-22T06:58:51;3.30;;;1.40;;
21297;SDS011;10808;48.010;11.326;2023-12-22T07:01:19;4.53;;;1.60;;
21297;SDS011;10808;48.010;11.326;2023-12-22T07:03:46;4.05;;;1.20;;
21297;SDS011;10808;48.010;11.326;2023-12-22T07:06:15;4.78;;;1.15;;
21297;SDS011;10808;48.010;11.326;2023-12-22T07:08:42;6.82;;;1.55;;
21297;SDS011;10808;48.010;11.326;2023-12-22T07:11:11;3.35;;;1.42;;
21297;SDS011;10808;48.010;11.326;2023-12-22T07:13:37;4.97;;;1.17;;
21297;SDS011;10808;48.010;11.326;2023-12-22T07:16:05;3.47;;;1.17;;
21297;SDS011;10808;48.010;11.326;2023-12-22T07:18:32;4.65;;;1.45;;
21297;SDS011;10808;48.010;11.326;2023-12-22T07:21:00;3.53;;;1.30;;
21297;SDS011;10808;48.010;11.326;2023-12-22T07:23:26;3.22;;;1.60;;
21297;SDS011;10808;48.010;11.326;2023-12-22T07:25:52;2.70;;;1.20;;
21297;SDS011;10808;48.010;11.326;2023-12-22T07:28:18;2.85;;;1.20;;
21297;SDS011;10808;48.010;11.326;2023-12-22T07:30:44;5.70;;;1.27;;
21297;SDS011;10808;48.010;11.326;2023-12-22T07:33:10;4.88;;;1.30;;
21297;SDS011;10808;48.010;11.326;2023-12-22T07:35:36;5.80;;;1.60;;
21297;SDS011;10808;48.010;11.326;2023-12-22T07:38:02;6.10;;;1.48;;
21297;SDS011;10808;48.010;11.326;2023-12-22T07:40:28;5.37;;;1.30;;
21297;SDS011;10808;48.010;11.326;2023-12-22T07:42:57;6.40;;;1.33;;
21297;SDS011;10808;48.010;11.326;2023-12-22T07:45:23;2.92;;;0.95;;
21297;SDS011;10808;48.010;11.326;2023-12-22T07:47:49;3.60;;;1.00;;
21297;SDS011;10808;48.010;11.326;2023-12-22T07:50:15;3.80;;;1.20;;
21297;SDS011;10808;48.010;11.326;2023-12-22T07:52:41;4.25;;;1.23;;
21297;SDS011;10808;48.010;11.326;2023-12-22T07:55:09;5.28;;;1.27;;
21297;SDS011;10808;48.010;11.326;2023-12-22T07:57:36;3.63;;;1.20;;
21297;SDS011;10808;48.010;11.326;2023-12-22T08:00:04;4.18;;;1.25;;
21297;SDS011;10808;48.010;11.326;2023-12-22T08:02:30;2.88;;;1.00;;
21297;SDS011;10808;48.010;11.326;2023-12-22T08:04:56;5.22;;;1.20;;
21297;SDS011;10808;48.010;11.326;2023-12-22T08:07:23;3.17;;;1.10;;
21297;SDS011;10808;48.010;11.326;2023-12-22T08:09:49;3.38;;;1.08;;
21297;SDS011;10808;48.010;11.326;2023-12-22T08:12:16;2.95;;;0.95;;
21297;SDS011;10808;48.010;11.326;2023-12-22T08:14:42;3.90;;;0.98;;
21297;SDS011;10808;48.010;11.326;2023-12-22T08:17:08;3.03;;;1.25;;
21297;SDS011;10808;48.010;11.326;2023-12-22T08:19:35;3.45;;;1.00;;
21297;SDS011;10808;48.010;11.326;2023-12-22T08:22:02;4.30;;;1.40;;
21297;SDS011;10808;48.010;11.326;2023-12-22T08:24:31;3.67;;;1.27;;
21297;SDS011;10808;48.010;11.326;2023-12-22T08:26:57;5.50;;;1.38;;
21297;SDS011;10808;48.010;11.326;2023-12-22T08:29:24;4.05;;;1.27;;
21297;SDS011;10808;48.010;11.326;2023-12-22T08:31:51;3.15;;;1.20;;
21297;SDS011;10808;48.010;11.326;2023-12-22T08:34:17;4.13;;;1.10;;
21297;SDS011;10808;48.010;11.326;2023-12-22T08:36:43;5.32;;;1.55;;
21297;SDS011;10808;48.010;11.326;2023-12-22T08:39:09;4.47;;;1.45;;
21297;SDS011;10808;48.010;11.326;2023-12-22T08:41:35;4.35;;;1.30;;
21297;SDS011;10808;48.010;11.326;2023-12-22T08:44:04;5.05;;;1.30;;
21297;SDS011;10808;48.010;11.326;2023-12-22T08:46:30;4.55;;;1.42;;
21297;SDS011;10808;48.010;11.326;2023-12-22T08:48:57;3.40;;;1.23;;
21297;SDS011;10808;48.010;11.326;2023-12-22T08:51:25;4.72;;;1.40;;
21297;SDS011;10808;48.010;11.326;2023-12-22T08:53:52;4.82;;;1.70;;
21297;SDS011;10808;48.010;11.326;2023-12-22T08:56:20;5.77;;;1.70;;
21297;SDS011;10808;48.010;11.326;2023-12-22T08:58:51;5.67;;;1.60;;
21297;SDS011;10808;48.010;11.326;2023-12-22T09:01:21;5.50;;;1.30;;
21297;SDS011;10808;48.010;11.326;2023-12-22T09:03:48;6.05;;;1.75;;
21297;SDS011;10808;48.010;11.326;2023-12-22T09:06:14;6.30;;;1.40;;
21297;SDS011;10808;48.010;11.326;2023-12-22T09:08:41;5.50;;;1.30;;
21297;SDS011;10808;48.010;11.326;2023-12-22T09:11:08;4.55;;;1.10;;
21297;SDS011;10808;48.010;11.326;2023-12-22T09:13:36;4.17;;;1.47;;
21297;SDS011;10808;48.010;11.326;2023-12-22T09:16:03;6.88;;;1.40;;
21297;SDS011;10808;48.010;11.326;2023-12-22T09:18:30;4.75;;;1.60;;
21297;SDS011;10808;48.010;11.326;2023-12-22T09:20:57;5.05;;;1.60;;
21297;SDS011;10808;48.010;11.326;2023-12-22T09:23:23;4.80;;;1.77;;
21297;SDS011;10808;48.010;11.326;2023-12-22T09:25:50;5.00;;;1.40;;
21297;SDS011;10808;48.010;11.326;2023-12-22T09:28:16;4.37;;;1.30;;
21297;SDS011;10808;48.010;11.326;2023-12-22T09:30:42;4.93;;;1.48;;
21297;SDS011;10808;48.010;11.326;2023-12-22T09:33:11;4.60;;;1.98;;
21297;SDS011;10808;48.010;11.326;2023-12-22T09:35:38;4.88;;;1.42;;
21297;SDS011;10808;48.010;11.326;2023-12-22T09:38:07;4.50;;;1.27;;
21297;SDS011;10808;48.010;11.326;2023-12-22T09:40:36;6.50;;;1.27;;
21297;SDS011;10808;48.010;11.326;2023-12-22T09:43:04;5.38;;;1.30;;
21297;SDS011;10808;48.010;11.326;2023-12-22T09:45:32;4.30;;;1.30;;
21297;SDS011;10808;48.010;11.326;2023-12-22T09:47:59;6.22;;;1.30;;
21297;SDS011;10808;48.010;11.326;2023-12-22T09:50:26;3.10;;;1.30;;
21297;SDS011;10808;48.010;11.326;2023-12-22T09:52:53;5.65;;;1.35;;
21297;SDS011;10808;48.010;11.326;2023-12-22T09:55:21;2.95;;;1.10;;
21297;SDS011;10808;48.010;11.326;2023-12-22T09:57:47;2.50;;;1.10;;
21297;SDS011;10808;48.010;11.326;2023-12-22T10:00:15;2.75;;;0.88;;
21297;SDS011;10808;48.010;11.326;2023-12-22T10:02:43;2.13;;;0.88;;
21297;SDS011;10808;48.010;11.326;2023-12-22T10:05:11;1.88;;;0.90;;
21297;SDS011;10808;48.010;11.326;2023-12-22T10:07:44;2.53;;;0.90;;
21297;SDS011;10808;48.010;11.326;2023-12-22T10:10:11;2.65;;;1.30;;
21297;SDS011;10808;48.010;11.326;2023-12-22T10:12:38;5.60;;;1.50;;
21297;SDS011;10808;48.010;11.326;2023-12-22T10:15:05;3.30;;;0.90;;
21297;SDS011;10808;48.010;11.326;2023-12-22T10:17:34;2.60;;;1.00;;
21297;SDS011;10808;48.010;11.326;2023-12-22T10:20:00;5.30;;;1.20;;
21297;SDS011;10808;48.010;11.326;2023-12-22T10:22:27;3.90;;;1.50;;
21297;SDS011;10808;48.010;11.326;2023-12-22T10:24:53;5.80;;;1.45;;
21297;SDS011;10808;48.010;11.326;2023-12-22T10:27:19;4.32;;;1.35;;
21297;SDS011;10808;48.010;11.326;2023-12-22T10:29:49;4.30;;;1.30;;
21297;SDS011;10808;48.010;11.326;2023-12-22T10:32:16;5.78;;;2.15;;
21297;SDS011;10808;48.010;11.326;2023-12-22T10:34:42;4.80;;;1.67;;
21297;SDS011;10808;48.010;11.326;2023-12-22T10:37:09;6.85;;;1.60;;
21297;SDS011;10808;48.010;11.326;2023-12-22T10:39:35;6.03;;;1.50;;
21297;SDS011;10808;48.010;11.326;2023-12-22T10:42:02;4.75;;;1.67;;
21297;SDS011;10808;48.010;11.326;2023-12-22T10:44:29;4.85;;;1.40;;
21297;SDS011;10808;48.010;11.326;2023-12-22T10:46:56;6.07;;;1.55;;
21297;SDS011;10808;48.010;11.326;2023-12-22T10:49:23;5.88;;;1.90;;
21297;SDS011;10808;48.010;11.326;2023-12-22T10:51:50;5.20;;;1.50;;
21297;SDS011;10808;48.010;11.326;2023-12-22T10:54:17;5.25;;;1.10;;
21297;SDS011;10808;48.010;11.326;2023-12-22T10:56:44;4.20;;;1.23;;
21297;SDS011;10808;48.010;11.326;2023-12-22T10:59:11;5.45;;;2.10;;
21297;SDS011;10808;48.010;11.326;2023-12-22T11:01:37;5.37;;;2.33;;
21297;SDS011;10808;48.010;11.326;2023-12-22T11:04:09;4.03;;;1.70;;
21297;SDS011;10808;48.010;11.326;2023-12-22T11:06:39;3.60;;;1.15;;
21297;SDS011;10808;48.010;11.326;2023-12-22T11:09:08;2.33;;;1.08;;
21297;SDS011;10808;48.010;11.326;2023-12-22T11:11:38;4.22;;;1.30;;
21297;SDS011;10808;48.010;11.326;2023-12-22T11:14:06;5.15;;;1.60;;
21297;SDS011;10808;48.010;11.326;2023-12-22T11:16:35;3.70;;;1.00;;
21297;SDS011;10808;48.010;11.326;2023-12-22T11:19:02;2.67;;;1.20;;
21297;SDS011;10808;48.010;11.326;2023-12-22T11:21:29;2.80;;;1.20;;
21297;SDS011;10808;48.010;11.326;2023-12-22T11:23:56;4.43;;;1.60;;
21297;SDS011;10808;48.010;11.326;2023-12-22T11:26:23;2.08;;;1.17;;
21297;SDS011;10808;48.010;11.326;2023-12-22T11:28:50;5.35;;;1.10;;
21297;SDS011;10808;48.010;11.326;2023-12-22T11:31:17;3.80;;;0.95;;
21297;SDS011;10808;48.010;11.326;2023-12-22T11:33:45;2.97;;;1.00;;
21297;SDS011;10808;48.010;11.326;2023-12-22T11:36:13;3.23;;;1.40;;
21297;SDS011;10808;48.010;11.326;2023-12-22T11:38:40;3.33;;;1.30;;
21297;SDS011;10808;48.010;11.326;2023-12-22T11:41:17;5.68;;;1.40;;
21297;SDS011;10808;48.010;11.326;2023-12-22T11:43:46;3.22;;;1.30;;
21297;SDS011;10808;48.010;11.326;2023-12-22T11:46:16;6.18;;;1.95;;
21297;SDS011;10808;48.010;11.326;2023-12-22T11:48:46;3.42;;;1.45;;
21297;SDS011;10808;48.010;11.326;2023-12-22T11:51:14;5.68;;;1.65;;
21297;SDS011;10808;48.010;11.326;2023-12-22T11:53:41;6.65;;;1.58;;
21297;SDS011;10808;48.010;11.326;2023-12-22T11:56:08;5.18;;;1.98;;
21297;SDS011;10808;48.010;11.326;2023-12-22T11:58:36;5.57;;;1.70;;
21297;SDS011;10808;48.010;11.326;2023-12-22T12:01:07;6.35;;;1.65;;
21297;SDS011;10808;48.010;11.326;2023-12-22T12:03:41;5.40;;;1.90;;
21297;SDS011;10808;48.010;11.326;2023-12-22T12:06:14;5.90;;;1.70;;
21297;SDS011;10808;48.010;11.326;2023-12-22T12:08:44;7.00;;;1.77;;
21297;SDS011;10808;48.010;11.326;2023-12-22T12:11:10;4.22;;;1.90;;
21297;SDS011;10808;48.010;11.326;2023-12-22T12:13:37;6.55;;;2.05;;
21297;SDS011;10808;48.010;11.326;2023-12-22T12:16:07;6.38;;;1.77;;
21297;SDS011;10808;48.010;11.326;2023-12-22T12:18:34;6.63;;;1.70;;
21297;SDS011;10808;48.010;11.326;2023-12-22T12:21:00;8.07;;;1.85;;
21297;SDS011;10808;48.010;11.326;2023-12-22T12:23:27;5.25;;;2.03;;
21297;SDS011;10808;48.010;11.326;2023-12-22T12:25:53;5.35;;;2.00;;
21297;SDS011;10808;48.010;11.326;2023-12-22T12:28:28;7.18;;;1.80;;
21297;SDS011;10808;48.010;11.326;2023-12-22T12:31:03;9.53;;;2.23;;
21297;SDS011;10808;48.010;11.326;2023-12-22T12:33:31;7.65;;;2.17;;
21297;SDS011;10808;48.010;11.326;2023-12-22T12:35:58;4.82;;;1.73;;
21297;SDS011;10808;48.010;11.326;2023-12-22T12:38:34;5.20;;;1.70;;
21297;SDS011;10808;48.010;11.326;2023-12-22T12:41:05;3.83;;;1.30;;
21297;SDS011;10808;48.010;11.326;2023-12-22T12:43:31;4.55;;;1.40;;
21297;SDS011;10808;48.010;11.326;2023-12-22T12:46:03;5.07;;;1.50;;
21297;SDS011;10808;48.010;11.326;2023-12-22T12:48:30;4.25;;;1.23;;
21297;SDS011;10808;48.010;11.326;2023-12-22T12:51:01;3.20;;;1.40;;
21297;SDS011;10808;48.010;11.326;2023-12-22T12:53:31;4.38;;;1.42;;
21297;SDS011;10808;48.010;11.326;2023-12-22T12:55:58;4.22;;;1.33;;
21297;SDS011;10808;48.010;11.326;2023-12-22T12:58:31;5.35;;;1.75;;
21297;SDS011;10808;48.010;11.326;2023-12-22T13:01:08;5.55;;;1.83;;
21297;SDS011;10808;48.010;11.326;2023-12-22T13:03:56;7.15;;;2.42;;
21297;SDS011;10808;48.010;11.326;2023-12-22T13:06:25;4.75;;;1.80;;
21297;SDS011;10808;48.010;11.326;2023-12-22T13:08:51;5.88;;;1.60;;
21297;SDS011;10808;48.010;11.326;2023-12-22T13:11:21;3.00;;;1.40;;
21297;SDS011;10808;48.010;11.326;2023-12-22T13:13:48;5.05;;;1.67;;
21297;SDS011;10808;48.010;11.326;2023-12-22T13:16:18;5.32;;;1.85;;
21297;SDS011;10808;48.010;11.326;2023-12-22T13:18:49;5.10;;;1.30;;
21297;SDS011;10808;48.010;11.326;2023-12-22T13:21:15;7.00;;;2.33;;
21297;SDS011;10808;48.010;11.326;2023-12-22T13:23:41;4.68;;;1.80;;
21297;SDS011;10808;48.010;11.326;2023-12-22T13:26:17;6.10;;;1.80;;
21297;SDS011;10808;48.010;11.326;2023-12-22T13:28:46;7.07;;;2.15;;
21297;SDS011;10808;48.010;11.326;2023-12-22T13:31:13;6.72;;;1.83;;
21297;SDS011;10808;48.010;11.326;2023-12-22T13:33:40;3.88;;;1.55;;
21297;SDS011;10808;48.010;11.326;2023-12-22T13:36:06;5.72;;;1.63;;
21297;SDS011;10808;48.010;11.326;2023-12-22T13:38:33;3.33;;;1.30;;
21297;SDS011;10808;48.010;11.326;2023-12-22T13:41:02;2.90;;;1.25;;
21297;SDS011;10808;48.010;11.326;2023-12-22T13:43:29;5.22;;;1.60;;
21297;SDS011;10808;48.010;11.326;2023-12-22T13:45:55;3.25;;;1.30;;
21297;SDS011;10808;48.010;11.326;2023-12-22T13:48:22;4.35;;;1.30;;
21297;SDS011;10808;48.010;11.326;2023-12-22T13:50:58;3.60;;;1.20;;
21297;SDS011;10808;48.010;11.326;2023-12-22T13:53:25;3.53;;;1.05;;
21297;SDS011;10808;48.010;11.326;2023-12-22T13:55:58;1.83;;;0.80;;
21297;SDS011;10808;48.010;11.326;2023-12-22T13:58:25;3.80;;;1.30;;
21297;SDS011;10808;48.010;11.326;2023-12-22T14:00:52;2.78;;;1.10;;
21297;SDS011;10808;48.010;11.326;2023-12-22T14:03:19;2.70;;;0.93;;
21297;SDS011;10808;48.010;11.326;2023-12-22T14:05:48;6.13;;;1.52;;
21297;SDS011;10808;48.010;11.326;2023-12-22T14:08:15;1.60;;;0.90;;
21297;SDS011;10808;48.010;11.326;2023-12-22T14:10:47;1.30;;;0.90;;
21297;SDS011;10808;48.010;11.326;2023-12-22T14:13:14;2.08;;;1.10;;
21297;SDS011;10808;48.010;11.326;2023-12-22T14:15:43;1.50;;;0.83;;
21297;SDS011;10808;48.010;11.326;2023-12-22T14:18:10;4.90;;;2.42;;
21297;SDS011;10808;48.010;11.326;2023-12-22T14:20:37;13.53;;;7.27;;
21297;SDS011;10808;48.010;11.326;2023-12-22T14:23:03;14.60;;;6.75;;
21297;SDS011;10808;48.010;11.326;2023-12-22T14:25:29;2.47;;;1.20;;
21297;SDS011;10808;48.010;11.326;2023-12-22T14:27:57;7.22;;;3.88;;
21297;SDS011;10808;48.010;11.326;2023-12-22T14:30:24;2.20;;;0.80;;
21297;SDS011;10808;48.010;11.326;2023-12-22T14:32:50;1.10;;;0.70;;
21297;SDS011;10808;48.010;11.326;2023-12-22T14:35:16;0.60;;;0.60;;